Terminal Aerodrome Forecast
Issued by NWS

Home | Current Version | Previous Version | Text Only | Print | Product List | Glossary On
Versions: 1 2 3 4 5 6 7 8 9 10 11 12 13 14 15 16 17
499
FTUS41 KCAR 272330
TAFBHB
TAF
KBHB 272330Z 2800/2824 21010KT P6SM -SHRA BKN025 OVC070
     FM280200 21007KT P6SM BKN050
     FM280600 22005KT 6SM BR SCT009
     FM281000 VRB02KT 2SM BR BKN010
     FM281200 VRB02KT P6SM BKN025
     FM281600 34008KT P6SM SCT050
      AMD NOT SKED=

USA.gov is the U.S. government's official web portal to all federal, state and local government web resources and services.